Las Vegas Municipal Airport
KLVS : now visible

Airfield :











YOU CAN JOIN US ON...

 
LOGIN :

Register | Disclaimer

   EN    FR    IT 

 









Legend :    VFR   Marginal VFR   IFR   Intensive IFR   Very Intensive IFR
Visi :
Ceiling :
>= 8 km
>= 3000ft
5 to 8 km
1000 to 3000 ft
1500m to 5 km
500 to 1000 ft
800 to 1500m
200 to 500 ft
< 800m
< 200 ft
Symbols :   Thunderstorms  Fog  Heavy snow  Heavy precipitations  Wind > 20 kt






- Airport Elevation : 6877 ft


KLVS - Las Vegas Municipal

CURRENT METAR :
  • 282153Z AUTO 25024G38KT 10SM CLR A2965 RMK AO2 PK WND 27041/2138 SLPNO

EXPIRED METARs :
  • 282053Z AUTO 23019G28KT 10SM CLR A2966 RMK AO2 PK WND 24038/2019 SLPNO 56027
  • 281953Z AUTO 25025G36KT 10SM CLR A2969 RMK AO2 PK WND 26036/1953 SLPNO

TAF KLVS
Valid from the 28 at 18:00 until the 29 at 18:00 UTC


281740Z 2818/2918 24021G31KT P6SM SCT250
TEMPO 2818/2822 17011KT
FM290000 24018G28KT P6SM FEW250 WS007/27060KT
FM290900 24027G37KT P6SM FEW150 WS007/27060KT
FM291700 25030G42KT P6SM FEW150
KZAB FIR / North America



MET'MAP, your aeronautical weather chart ! - Copyright ORBIFLY December 2007 - Disclaimer

ORBIFLY MET'MAP TEAM :

Programming & Development : Alexandra Zaïnal
Original concept : Baudouin d'Aumeries
Technical & hardware support : Manuel Goepfert
Assistance : Marc-Olivier Méhu




SOURCES & CREDITS :

   NOAA       Earth
Advisory